createdAt,value
2022-12-29T00:00:09.785Z,97062.84
2022-12-29T00:01:11.722Z,97058.63
2022-12-29T00:02:13.907Z,97056.59
2022-12-29T00:03:15.874Z,97056.31
2022-12-29T00:04:19.714Z,97067.13
2022-12-29T00:05:21.582Z,97053.63
2022-12-29T00:06:23.478Z,97057.78
2022-12-29T00:07:25.338Z,97059.56
2022-12-29T00:08:41.572Z,97056.31
2022-12-29T00:09:43.652Z,97058.88
2022-12-29T00:10:45.507Z,97054.69
2022-12-29T00:11:47.359Z,97056.59
2022-12-29T00:13:18.217Z,97057.25
2022-12-29T00:14:38.671Z,97054.69
2022-12-29T00:15:40.661Z,97059.16
2022-12-29T00:16:44.245Z,97051.44
2022-12-29T00:17:46.028Z,97050.22
2022-12-29T00:18:48.108Z,97051.84
2022-12-29T00:20:28.431Z,97057.66
2022-12-29T00:21:49.123Z,97057.34
2022-12-29T00:23:09.400Z,97057.09
2022-12-29T00:24:35.680Z,97057.09
2022-12-29T00:25:56.337Z,97053.03
2022-12-29T00:27:20.030Z,97054.50
2022-12-29T00:28:40.137Z,97055.44
2022-12-29T00:30:00.884Z,97051.72
2022-12-29T00:31:21.125Z,97061.47
2022-12-29T00:32:41.177Z,97052.13
2022-12-29T00:34:01.316Z,97053.31
2022-12-29T00:35:11.860Z,97057.66
2022-12-29T00:36:17.418Z,97065.50
2022-12-29T00:37:40.237Z,97057.94
2022-12-29T00:39:02.994Z,97059.16
2022-12-29T00:40:23.640Z,97066.88
2022-12-29T00:41:44.339Z,97052.94
2022-12-29T00:43:05.289Z,97063.91
2022-12-29T00:44:07.985Z,97060.94
2022-12-29T00:45:09.811Z,97058.38
2022-12-29T00:46:19.402Z,97061.25
2022-12-29T00:47:21.604Z,97050.81
2022-12-29T00:48:42.208Z,97065.00
2022-12-29T00:49:44.061Z,97060.53
2022-12-29T00:50:45.880Z,97060.41
2022-12-29T00:51:47.957Z,97063.94
2022-12-29T00:52:49.919Z,97056.88
2022-12-29T00:53:51.836Z,97063.50
2022-12-29T00:54:53.590Z,97054.69
2022-12-29T00:55:55.418Z,97055.53
2022-12-29T00:56:57.389Z,97055.91
2022-12-29T00:57:59.577Z,97054.97
2022-12-29T00:59:02.136Z,97057.41
2022-12-29T01:00:04.817Z,97061.06
2022-12-29T01:01:07.689Z,97055.25
2022-12-29T01:02:11.017Z,97057.41
2022-12-29T01:03:13.010Z,97054.69
2022-12-29T01:04:15.929Z,97057.41
2022-12-29T01:05:17.729Z,97053.88
2022-12-29T01:06:20.151Z,97048.88
2022-12-29T01:07:23.284Z,97057.41
2022-12-29T01:08:25.158Z,97059.03
2022-12-29T01:09:45.607Z,97051.31
2022-12-29T01:10:47.446Z,97050.38
2022-12-29T01:11:49.326Z,97056.19
2022-12-29T01:12:52.056Z,97050.38
2022-12-29T01:13:53.833Z,97054.97
2022-12-29T01:14:55.582Z,97058.22
2022-12-29T01:15:57.728Z,97058.88
2022-12-29T01:17:00.338Z,97057.94
2022-12-29T01:18:02.169Z,97055.22
2022-12-29T01:19:04.551Z,97056.84
2022-12-29T01:20:06.893Z,97052.66
2022-12-29T01:21:09.159Z,97056.69
2022-12-29T01:22:11.087Z,97052.50
2022-12-29T01:23:12.977Z,97046.69
2022-12-29T01:24:16.666Z,97047.13
2022-12-29T01:25:19.010Z,97046.69
2022-12-29T01:26:21.047Z,97054.13
2022-12-29T01:27:22.884Z,97058.63
2022-12-29T01:28:26.250Z,97051.34
2022-12-29T01:29:28.354Z,97047.00
2022-12-29T01:30:30.145Z,97050.53
2022-12-29T01:31:32.047Z,97042.81
2022-12-29T01:32:33.912Z,97041.06
2022-12-29T01:33:35.733Z,97052.31
2022-12-29T01:34:37.487Z,97047.00
2022-12-29T01:35:39.412Z,97046.72
2022-12-29T01:36:42.256Z,97038.75
2022-12-29T01:37:44.058Z,97041.69
2022-12-29T01:38:45.993Z,97041.56
2022-12-29T01:39:47.820Z,97045.72
2022-12-29T01:40:49.665Z,97045.38
2022-12-29T01:41:51.588Z,97044.03
2022-12-29T01:42:53.402Z,97048.88
2022-12-29T01:43:57.624Z,97039.69
2022-12-29T01:45:02.785Z,97044.03
2022-12-29T01:46:04.704Z,97033.88
2022-12-29T01:47:09.063Z,97045.50
2022-12-29T01:48:11.515Z,97028.47
2022-12-29T01:49:15.146Z,97035.22
2022-12-29T01:50:18.458Z,97035.06
2022-12-29T01:51:21.701Z,97030.88
2022-12-29T01:52:24.261Z,97026.97
2022-12-29T01:53:29.008Z,97020.63
2022-12-29T01:54:37.231Z,97023.06
2022-12-29T01:55:41.791Z,97023.63
2022-12-29T01:56:44.036Z,97017.16
2022-12-29T01:57:48.681Z,97012.16
2022-12-29T01:58:55.838Z,97016.34
2022-12-29T02:00:01.756Z,97016.22
2022-12-29T02:01:04.121Z,97013.47
2022-12-29T02:02:06.768Z,97017.69
2022-12-29T02:03:10.164Z,97018.22
2022-12-29T02:04:13.406Z,97015.91
2022-12-29T02:05:21.049Z,97014.44
2022-12-29T02:06:25.228Z,97012.31
2022-12-29T02:07:28.423Z,97009.56
2022-12-29T02:08:30.813Z,97007.41
2022-12-29T02:09:32.620Z,97011.56
2022-12-29T02:10:36.315Z,97013.88
2022-12-29T02:11:39.917Z,97014.69
2022-12-29T02:12:41.887Z,97021.47
2022-12-29T02:13:43.677Z,97023.34
2022-12-29T02:14:45.925Z,97013.06
2022-12-29T02:16:03.037Z,97019.03
2022-12-29T02:17:12.712Z,97023.59
2022-12-29T02:18:27.746Z,97012.50
2022-12-29T02:19:48.065Z,97019.25
2022-12-29T02:21:08.425Z,97015.78
2022-12-29T02:22:24.505Z,97015.53
2022-12-29T02:23:28.996Z,97015.53
2022-12-29T02:24:52.385Z,97013.66
2022-12-29T02:25:56.961Z,97008.19
2022-12-29T02:27:14.081Z,97008.06
2022-12-29T02:28:25.382Z,97010.63
2022-12-29T02:30:02.875Z,97013.06
2022-12-29T02:31:23.275Z,97016.22
2022-12-29T02:32:33.426Z,97014.59
2022-12-29T02:33:59.217Z,97015.25
2022-12-29T02:35:03.714Z,97018.47
2022-12-29T02:36:14.880Z,97016.88
2022-12-29T02:37:31.798Z,97020.13
2022-12-29T02:38:34.609Z,97016.31
2022-12-29T02:39:47.526Z,97018.59
2022-12-29T02:41:04.756Z,97020.50
2022-12-29T02:42:22.285Z,97011.22
2022-12-29T02:43:24.089Z,97012.31
2022-12-29T02:44:43.906Z,97019.72
2022-12-29T02:45:51.347Z,97015.25
2022-12-29T02:46:55.842Z,97016.59
2022-12-29T02:48:00.489Z,97018.22
2022-12-29T02:49:21.736Z,97015.34
2022-12-29T02:50:39.987Z,97017.91
2022-12-29T02:51:50.672Z,97007.38
2022-12-29T02:52:57.201Z,97019.91
2022-12-29T02:54:18.028Z,97012.19
2022-12-29T02:55:20.215Z,97015.75
2022-12-29T02:56:22.545Z,97013.56
2022-12-29T02:57:24.419Z,97010.34
2022-12-29T02:58:26.283Z,97007.09
2022-12-29T02:59:28.139Z,97010.78
2022-12-29T03:00:30.123Z,97008.19
2022-12-29T03:02:03.819Z,97004.16
2022-12-29T03:03:25.180Z,97008.63
2022-12-29T03:04:49.807Z,97012.00
2022-12-29T03:05:51.554Z,97008.50
2022-12-29T03:07:08.745Z,97008.78
2022-12-29T03:08:43.036Z,97009.16
2022-12-29T03:09:51.200Z,97011.75
2022-12-29T03:11:06.670Z,97009.66
2022-12-29T03:12:16.154Z,97004.41
2022-12-29T03:13:45.630Z,97012.78
2022-12-29T03:15:21.627Z,97015.88
2022-12-29T03:16:33.998Z,97012.78
2022-12-29T03:17:52.941Z,97013.06
2022-12-29T03:19:08.274Z,97012.41
2022-12-29T03:20:11.676Z,97009.66
2022-12-29T03:21:17.954Z,97001.28
2022-12-29T03:22:29.008Z,97005.63
2022-12-29T03:23:31.693Z,97003.06
2022-12-29T03:24:39.451Z,97008.19
2022-12-29T03:25:45.282Z,97008.06
2022-12-29T03:26:48.847Z,97004.03
2022-12-29T03:27:52.734Z,97008.50
2022-12-29T03:28:55.751Z,97001.72
2022-12-29T03:29:59.827Z,97004.72
2022-12-29T03:31:02.230Z,97004.88
2022-12-29T03:32:06.093Z,97005.84
2022-12-29T03:33:11.320Z,97000.53
2022-12-29T03:34:14.761Z,96995.25
2022-12-29T03:35:20.451Z,96996.88
2022-12-29T03:36:28.677Z,96998.78
2022-12-29T03:37:33.778Z,96993.34
2022-12-29T03:38:55.035Z,96994.31
2022-12-29T03:39:57.649Z,96999.50
2022-12-29T03:41:01.582Z,97000.59
2022-12-29T03:42:06.048Z,97004.75
2022-12-29T03:43:07.982Z,96996.13
2022-12-29T03:44:09.967Z,96993.25
2022-12-29T03:45:12.224Z,96996.34
2022-12-29T03:46:14.136Z,96992.81
2022-12-29T03:47:16.445Z,96997.56
2022-12-29T03:48:19.238Z,96998.50
2022-12-29T03:49:20.998Z,96996.22
2022-12-29T03:50:22.874Z,96992.31
2022-12-29T03:51:24.683Z,96990.00
2022-12-29T03:52:26.549Z,96980.69
2022-12-29T03:53:28.406Z,96980.69
2022-12-29T03:54:30.651Z,96990.81
2022-12-29T03:55:32.525Z,96986.50
2022-12-29T03:56:35.623Z,96998.69
2022-12-29T03:57:37.614Z,96989.34
2022-12-29T03:58:39.491Z,96986.91
2022-12-29T03:59:41.324Z,96994.47
2022-12-29T04:00:43.160Z,96998.03
2022-12-29T04:01:45.099Z,96995.94
2022-12-29T04:02:48.672Z,96990.44
2022-12-29T04:03:51.004Z,96986.38
2022-12-29T04:04:53.042Z,96985.88
2022-12-29T04:05:54.933Z,96992.75
2022-12-29T04:06:56.730Z,96996.28
2022-12-29T04:07:58.544Z,96986.94
2022-12-29T04:09:00.450Z,96997.22
2022-12-29T04:10:02.222Z,96989.00
2022-12-29T04:11:04.730Z,96994.28
2022-12-29T04:12:06.560Z,96985.19
2022-12-29T04:13:09.412Z,96977.31
2022-12-29T04:14:11.264Z,96988.28
2022-12-29T04:15:13.230Z,96987.34
2022-12-29T04:16:16.371Z,96988.13
2022-12-29T04:17:18.464Z,96990.19
2022-12-29T04:18:20.221Z,96990.84
2022-12-29T04:19:22.081Z,96992.59
2022-12-29T04:20:42.381Z,96993.56
2022-12-29T04:21:45.466Z,96999.78
2022-12-29T04:22:47.354Z,96991.72
2022-12-29T04:23:49.469Z,96991.84
2022-12-29T04:24:51.307Z,96988.47
2022-12-29T04:25:53.079Z,96999.94
2022-12-29T04:26:55.597Z,97001.56
2022-12-29T04:27:57.647Z,96998.31
2022-12-29T04:28:59.535Z,96991.16
2022-12-29T04:30:01.349Z,96995.63
2022-12-29T04:31:04.268Z,96991.41
2022-12-29T04:32:06.530Z,97002.66
2022-12-29T04:33:09.506Z,96998.63
2022-12-29T04:34:11.323Z,96996.72
2022-12-29T04:35:13.188Z,96996.41
2022-12-29T04:36:15.033Z,96990.75
2022-12-29T04:37:16.967Z,97005.34
2022-12-29T04:38:18.874Z,96999.94
2022-12-29T04:39:20.743Z,96999.41
2022-12-29T04:40:22.641Z,96999.56
2022-12-29T04:41:24.699Z,97002.91
2022-12-29T04:42:27.556Z,97007.25
2022-12-29T04:43:29.479Z,97002.78
2022-12-29T04:44:31.428Z,96996.31
2022-12-29T04:45:33.404Z,97000.91
2022-12-29T04:46:36.555Z,97005.53
2022-12-29T04:47:38.403Z,97010.16
2022-12-29T04:48:40.237Z,97017.03
2022-12-29T04:49:42.091Z,97015.53
2022-12-29T04:50:44.521Z,97006.22
2022-12-29T04:51:46.415Z,97013.81
2022-12-29T04:52:48.304Z,97006.22
2022-12-29T04:53:50.176Z,97010.69
2022-12-29T04:54:51.970Z,97014.88
2022-12-29T04:55:54.186Z,97017.44
2022-12-29T04:56:55.970Z,97013.28
2022-12-29T04:57:57.830Z,97004.06
2022-12-29T04:58:59.681Z,97010.81
2022-12-29T05:00:01.509Z,97009.72
2022-12-29T05:01:03.356Z,97018.13
2022-12-29T05:02:05.193Z,97012.03
2022-12-29T05:03:07.274Z,97011.91
2022-12-29T05:04:09.546Z,97017.97
2022-12-29T05:05:11.408Z,97009.47
2022-12-29T05:06:13.214Z,97018.66
2022-12-29T05:07:14.980Z,97010.28
2022-12-29T05:08:16.872Z,97012.16
2022-12-29T05:09:18.699Z,97021.22
2022-12-29T05:10:20.560Z,97021.88
2022-12-29T05:11:22.361Z,97020.00
2022-12-29T05:12:24.196Z,97028.56
2022-12-29T05:13:26.136Z,97019.75
2022-12-29T05:14:28.013Z,97023.78
2022-12-29T05:15:29.830Z,97020.31
2022-12-29T05:16:31.810Z,97020.56
2022-12-29T05:17:33.750Z,97022.72
2022-12-29T05:18:36.717Z,97022.31
2022-12-29T05:19:39.442Z,97022.19
2022-12-29T05:20:41.219Z,97024.09
2022-12-29T05:21:43.014Z,97022.31
2022-12-29T05:22:44.845Z,97022.44
2022-12-29T05:23:46.751Z,97030.97
2022-12-29T05:24:48.711Z,97030.28
2022-12-29T05:25:50.648Z,97022.19
2022-12-29T05:26:52.540Z,97026.38
2022-12-29T05:27:54.388Z,97028.69
2022-12-29T05:28:56.343Z,97026.13
2022-12-29T05:29:58.144Z,97033.94
2022-12-29T05:31:00.010Z,97028.94
2022-12-29T05:32:01.897Z,97026.38
2022-12-29T05:33:03.700Z,97029.75
2022-12-29T05:34:05.635Z,97028.13
2022-12-29T05:35:07.659Z,97022.19
2022-12-29T05:36:10.090Z,97027.34
2022-12-29T05:37:11.916Z,97020.56
2022-12-29T05:38:14.050Z,97019.47
2022-12-29T05:39:16.516Z,97026.78
2022-12-29T05:40:19.115Z,97024.09
2022-12-29T05:41:21.078Z,97020.69
2022-12-29T05:42:22.987Z,97031.38
2022-12-29T05:43:24.847Z,97020.13
2022-12-29T05:44:26.840Z,97022.56
2022-12-29T05:45:28.914Z,97025.13
2022-12-29T05:46:31.217Z,97017.84
2022-12-29T05:47:32.982Z,97023.00
2022-12-29T05:48:38.076Z,97023.00
2022-12-29T05:49:40.475Z,97022.31
2022-12-29T05:50:42.462Z,97028.13
2022-12-29T05:51:44.580Z,97023.91
2022-12-29T05:52:46.349Z,97023.00
2022-12-29T05:53:48.159Z,97019.75
2022-12-29T05:54:50.615Z,97025.00
2022-12-29T05:55:52.919Z,97028.13
2022-12-29T05:56:55.687Z,97020.41
2022-12-29T05:57:57.672Z,97016.22
2022-12-29T05:58:59.851Z,97024.59
2022-12-29T06:00:01.706Z,97026.50
2022-12-29T06:01:03.557Z,97021.09
2022-12-29T06:02:06.810Z,97027.84
2022-12-29T06:03:09.262Z,97028.50
2022-12-29T06:04:11.455Z,97029.16
2022-12-29T06:05:13.266Z,97025.66
2022-12-29T06:06:15.153Z,97022.44
2022-12-29T06:07:17.090Z,97030.00
2022-12-29T06:08:19.107Z,97021.47
2022-12-29T06:09:21.057Z,97027.44
2022-12-29T06:10:22.948Z,97029.84
2022-12-29T06:11:24.811Z,97018.91
2022-12-29T06:12:26.716Z,97030.81
2022-12-29T06:13:28.943Z,97030.81
2022-12-29T06:14:30.765Z,97029.16
2022-12-29T06:15:33.290Z,97020.53
2022-12-29T06:16:35.297Z,97027.94
2022-12-29T06:17:37.178Z,97021.06
2022-12-29T06:18:39.094Z,97018.63
2022-12-29T06:19:41.719Z,97007.00
2022-12-29T06:20:43.578Z,97009.44
2022-12-29T06:21:45.496Z,97017.28
2022-12-29T06:22:47.997Z,97020.13
2022-12-29T06:23:49.808Z,97015.53
2022-12-29T06:24:51.728Z,97011.19
2022-12-29T06:25:53.500Z,97014.06
2022-12-29T06:26:55.364Z,97015.81
2022-12-29T06:27:57.299Z,97019.19
2022-12-29T06:28:59.131Z,97021.75
2022-12-29T06:30:01.065Z,97014.06
2022-12-29T06:31:04.323Z,97019.06
2022-12-29T06:32:06.274Z,97017.03
2022-12-29T06:33:09.575Z,97009.59
2022-12-29T06:34:11.425Z,97014.88
2022-12-29T06:35:13.223Z,97023.81
2022-12-29T06:36:15.056Z,97015.16
2022-12-29T06:37:17.021Z,97012.44
2022-12-29T06:38:19.426Z,97009.72
2022-12-29T06:39:21.418Z,97009.72
2022-12-29T06:40:24.372Z,97017.44
2022-12-29T06:41:31.987Z,97010.16
2022-12-29T06:42:34.344Z,97002.44
2022-12-29T06:43:39.386Z,97011.94
2022-12-29T06:44:41.884Z,97005.97
2022-12-29T06:45:44.011Z,97000.00
2022-12-29T06:46:45.833Z,97010.97
2022-12-29T06:47:47.794Z,96996.22
2022-12-29T06:48:49.673Z,96999.47
2022-12-29T06:49:51.549Z,96995.81
2022-12-29T06:50:53.286Z,97000.00
2022-12-29T06:51:55.094Z,96997.44
2022-12-29T06:52:56.968Z,97005.66
2022-12-29T06:53:58.893Z,97008.25
2022-12-29T06:55:00.748Z,97003.25
2022-12-29T06:56:02.569Z,96999.88
2022-12-29T06:57:04.347Z,97005.94
2022-12-29T06:58:07.707Z,97002.69
2022-12-29T06:59:10.415Z,97004.59
2022-12-29T07:00:12.504Z,97004.59
2022-12-29T07:01:14.347Z,97009.47
2022-12-29T07:02:17.977Z,97007.84
2022-12-29T07:03:20.019Z,97011.06
2022-12-29T07:04:21.898Z,97017.56
2022-12-29T07:05:23.679Z,97015.94
2022-12-29T07:06:25.520Z,97012.72
2022-12-29T07:07:27.325Z,97012.41
2022-12-29T07:08:29.311Z,97009.44
2022-12-29T07:09:31.099Z,97007.69
2022-12-29T07:10:32.967Z,97007.69
2022-12-29T07:11:34.849Z,97009.16
2022-12-29T07:12:36.694Z,97004.97
2022-12-29T07:13:38.686Z,97003.22
2022-12-29T07:14:43.296Z,97003.34
2022-12-29T07:15:45.353Z,97000.91
2022-12-29T07:16:47.275Z,97009.16
2022-12-29T07:17:50.788Z,97012.25
2022-12-29T07:18:52.969Z,97005.75
2022-12-29T07:20:00.602Z,97000.63
2022-12-29T07:21:02.982Z,97007.78
2022-12-29T07:22:04.825Z,97007.78
2022-12-29T07:23:06.885Z,97015.50
2022-12-29T07:24:10.798Z,97011.28
2022-12-29T07:25:12.588Z,97003.59
2022-12-29T07:26:15.448Z,97009.41
2022-12-29T07:27:17.237Z,97005.09
2022-12-29T07:28:19.042Z,97002.91
2022-12-29T07:29:20.975Z,97003.09
2022-12-29T07:30:22.846Z,97000.50
2022-12-29T07:31:24.771Z,97006.47
2022-12-29T07:32:26.537Z,96996.31
2022-12-29T07:33:32.138Z,97003.66
2022-12-29T07:34:34.097Z,97003.66
2022-12-29T07:35:36.924Z,97000.91
2022-12-29T07:36:38.750Z,97000.78
2022-12-29T07:37:40.576Z,97005.13
2022-12-29T07:38:42.909Z,97002.25
2022-12-29T07:39:44.656Z,97010.13
2022-12-29T07:40:46.802Z,96994.59
2022-12-29T07:41:48.657Z,97000.53
2022-12-29T07:42:50.436Z,97005.53
2022-12-29T07:43:52.348Z,96999.44
2022-12-29T07:44:54.273Z,97001.47
2022-12-29T07:45:56.198Z,96997.28
2022-12-29T07:46:59.149Z,97004.34
2022-12-29T07:48:01.244Z,97006.22
2022-12-29T07:49:03.127Z,97004.34
2022-12-29T07:50:05.670Z,97006.59
2022-12-29T07:51:08.837Z,97010.16
2022-12-29T07:52:10.733Z,97010.69
2022-12-29T07:53:12.646Z,97004.56
2022-12-29T07:54:14.420Z,97012.28
2022-12-29T07:55:16.780Z,97009.03
2022-12-29T07:56:18.646Z,97002.44
2022-12-29T07:57:22.254Z,96999.06
2022-12-29T07:58:28.393Z,97004.88
2022-12-29T07:59:30.308Z,97000.81
2022-12-29T08:00:32.082Z,97002.31
2022-12-29T08:01:34.855Z,97001.47
2022-12-29T08:02:37.170Z,97004.03
2022-12-29T08:03:39.605Z,97007.44
2022-12-29T08:04:41.466Z,97009.19
2022-12-29T08:05:43.375Z,97000.25
2022-12-29T08:06:46.744Z,96998.34
2022-12-29T08:07:48.585Z,97001.59
2022-12-29T08:08:50.552Z,96998.34
2022-12-29T08:09:52.320Z,97002.81
2022-12-29T08:10:54.179Z,97002.81
2022-12-29T08:11:56.253Z,97001.88
2022-12-29T08:12:58.883Z,96993.75
2022-12-29T08:14:00.774Z,96996.31
2022-12-29T08:15:02.678Z,96998.34
2022-12-29T08:16:04.625Z,96997.41
2022-12-29T08:17:17.773Z,96994.84
2022-12-29T08:18:19.543Z,97001.31
2022-12-29T08:19:21.330Z,97003.75
2022-12-29T08:20:23.157Z,97002.13
2022-12-29T08:21:26.241Z,96991.84
2022-12-29T08:22:28.082Z,96994.94
2022-12-29T08:23:29.900Z,96998.84
2022-12-29T08:24:31.747Z,96996.56
2022-12-29T08:25:33.775Z,97000.75
2022-12-29T08:26:36.196Z,96995.63
2022-12-29T08:27:38.525Z,96995.31
2022-12-29T08:28:40.461Z,97001.13
2022-12-29T08:29:42.447Z,97000.19
2022-12-29T08:30:44.552Z,96990.56
2022-12-29T08:31:46.693Z,96994.78
2022-12-29T08:32:48.684Z,96995.59
2022-12-29T08:33:50.820Z,96987.75
2022-12-29T08:34:52.698Z,97001.25
2022-12-29T08:35:59.501Z,96989.88
2022-12-29T08:37:01.410Z,96989.56
2022-12-29T08:38:03.329Z,96994.72
2022-12-29T08:39:05.243Z,96984.97
2022-12-29T08:40:08.332Z,96994.97
2022-12-29T08:41:11.755Z,96984.69
2022-12-29T08:42:15.364Z,96989.84
2022-12-29T08:43:18.745Z,96983.38
2022-12-29T08:44:20.902Z,96983.06
2022-12-29T08:45:22.724Z,96988.19
2022-12-29T08:46:24.732Z,96991.44
2022-12-29T08:47:26.976Z,96988.59
2022-12-29T08:48:28.842Z,96985.72
2022-12-29T08:49:30.908Z,96995.56
2022-12-29T08:50:32.807Z,96993.66
2022-12-29T08:51:34.611Z,96987.44
2022-12-29T08:52:36.436Z,96982.97
2022-12-29T08:53:38.147Z,96979.97
2022-12-29T08:54:40.930Z,96986.97
2022-12-29T08:55:42.789Z,96990.56
2022-12-29T08:56:44.591Z,96986.47
2022-12-29T08:57:46.476Z,96985.75
2022-12-29T08:58:48.284Z,96987.59
2022-12-29T08:59:50.875Z,96984.44
2022-12-29T09:00:56.243Z,96976.94
2022-12-29T09:01:58.162Z,96979.56
2022-12-29T09:03:00.238Z,96974.63
2022-12-29T09:04:18.401Z,96976.34
2022-12-29T09:05:20.523Z,96986.03
2022-12-29T09:06:22.435Z,96980.56
2022-12-29T09:07:24.956Z,96986.91
2022-12-29T09:08:26.758Z,96988.22
2022-12-29T09:09:28.676Z,96977.16
2022-12-29T09:10:30.547Z,96983.50
2022-12-29T09:11:32.346Z,96981.25
2022-12-29T09:12:36.537Z,96981.78
2022-12-29T09:13:38.715Z,96989.34
2022-12-29T09:14:40.557Z,96969.53
2022-12-29T09:15:43.007Z,96967.28
2022-12-29T09:17:03.672Z,96976.94
2022-12-29T09:18:05.668Z,96974.34
2022-12-29T09:19:07.517Z,96970.16
2022-12-29T09:20:10.204Z,96967.44
2022-12-29T09:21:13.971Z,96968.88
2022-12-29T09:22:15.837Z,96961.81
2022-12-29T09:23:17.657Z,96953.28
2022-12-29T09:24:19.495Z,96963.94
2022-12-29T09:25:22.404Z,96967.00
2022-12-29T09:26:24.275Z,96961.72
2022-12-29T09:27:26.144Z,96963.34
2022-12-29T09:28:30.374Z,96959.13
2022-12-29T09:29:32.431Z,96963.16
2022-12-29T09:30:34.406Z,96965.59
2022-12-29T09:31:36.300Z,96963.69
2022-12-29T09:32:44.546Z,96962.56
2022-12-29T09:33:47.892Z,96966.44
2022-12-29T09:34:49.689Z,96957.16
2022-12-29T09:35:52.736Z,96959.91
2022-12-29T09:36:54.923Z,96953.19
2022-12-29T09:37:56.823Z,96951.28
2022-12-29T09:38:58.686Z,96959.22
2022-12-29T09:40:00.767Z,96953.56
2022-12-29T09:41:07.283Z,96955.06
2022-12-29T09:42:16.031Z,96952.94
2022-12-29T09:43:36.670Z,96948.94
2022-12-29T09:44:41.356Z,96947.38
2022-12-29T09:45:52.360Z,96956.41
2022-12-29T09:46:56.252Z,96947.88
2022-12-29T09:47:58.227Z,96948.66
2022-12-29T09:48:59.996Z,96951.91
2022-12-29T09:50:14.231Z,96953.69
2022-12-29T09:51:17.897Z,96948.69
2022-12-29T09:52:22.876Z,96943.88
2022-12-29T09:53:39.296Z,96938.22
2022-12-29T09:54:41.571Z,96938.72
2022-12-29T09:55:50.821Z,96938.53
2022-12-29T09:56:54.064Z,96929.03
2022-12-29T09:57:58.557Z,96930.50
2022-12-29T09:59:15.489Z,96926.13
2022-12-29T10:00:18.773Z,96925.81
2022-12-29T10:01:32.690Z,96926.47
2022-12-29T10:02:45.512Z,96930.16
2022-12-29T10:03:51.791Z,96935.97
2022-12-29T10:04:53.787Z,96928.72
2022-12-29T10:06:15.832Z,96927.41
2022-12-29T10:07:31.286Z,96910.97
2022-12-29T10:08:41.130Z,96917.28
2022-12-29T10:10:02.606Z,96921.78
2022-12-29T10:11:23.090Z,96918.38
2022-12-29T10:12:28.807Z,96911.59
2022-12-29T10:13:42.879Z,96909.50
2022-12-29T10:14:47.696Z,96916.44
2022-12-29T10:15:58.699Z,96915.78
2022-12-29T10:17:12.819Z,96910.25
2022-12-29T10:18:14.608Z,96908.31
2022-12-29T10:19:33.568Z,96905.56
2022-12-29T10:20:44.505Z,96910.25
2022-12-29T10:21:49.359Z,96916.84
2022-12-29T10:22:54.152Z,96902.97
2022-12-29T10:23:57.566Z,96907.00
2022-12-29T10:25:01.110Z,96901.50
2022-12-29T10:26:04.351Z,96901.16
2022-12-29T10:27:11.053Z,96902.44
2022-12-29T10:28:22.202Z,96896.94
2022-12-29T10:29:27.932Z,96889.47
2022-12-29T10:30:31.021Z,96891.56
2022-12-29T10:31:41.523Z,96896.56
2022-12-29T10:32:49.887Z,96887.84
2022-12-29T10:33:59.439Z,96887.84
2022-12-29T10:35:06.960Z,96881.50
2022-12-29T10:36:15.264Z,96877.97
2022-12-29T10:37:34.266Z,96882.97
2022-12-29T10:38:45.069Z,96879.41
2022-12-29T10:39:49.110Z,96885.06
2022-12-29T10:40:55.017Z,96880.00
2022-12-29T10:41:59.887Z,96886.44
2022-12-29T10:43:03.754Z,96875.13
2022-12-29T10:44:05.552Z,96886.13
2022-12-29T10:45:07.957Z,96883.19
2022-12-29T10:46:19.469Z,96879.97
2022-12-29T10:47:26.661Z,96876.56
2022-12-29T10:48:32.355Z,96874.00
2022-12-29T10:49:38.524Z,96879.97
2022-12-29T10:50:44.219Z,96875.78
2022-12-29T10:51:49.060Z,96871.41
2022-12-29T10:52:51.374Z,96879.00
2022-12-29T10:53:57.065Z,96872.50
2022-12-29T10:55:04.508Z,96863.91
2022-12-29T10:56:11.420Z,96872.66
2022-12-29T10:57:21.796Z,96877.22
2022-12-29T10:58:24.588Z,96871.41
2022-12-29T10:59:29.576Z,96876.22
2022-12-29T11:00:32.805Z,96871.88
2022-12-29T11:01:43.138Z,96859.72
2022-12-29T11:02:51.275Z,96873.13
2022-12-29T11:04:00.949Z,96868.59
2022-12-29T11:05:05.819Z,96870.03
2022-12-29T11:06:27.934Z,96874.88
2022-12-29T11:07:31.332Z,96871.94
2022-12-29T11:08:40.021Z,96868.38
2022-12-29T11:09:43.496Z,96866.88
2022-12-29T11:10:46.404Z,96862.16
2022-12-29T11:11:48.436Z,96861.19
2022-12-29T11:13:13.780Z,96873.00
2022-12-29T11:14:15.555Z,96861.19
2022-12-29T11:15:17.615Z,96858.41
2022-12-29T11:16:32.023Z,96857.44
2022-12-29T11:17:44.570Z,96863.91
2022-12-29T11:18:48.092Z,96855.13
2022-12-29T11:19:49.837Z,96857.09
2022-12-29T11:20:53.622Z,96856.28
2022-12-29T11:21:55.989Z,96855.66
2022-12-29T11:22:58.134Z,96852.13
2022-12-29T11:24:01.659Z,96854.88
2022-12-29T11:25:08.342Z,96851.13
2022-12-29T11:26:13.295Z,96845.78
2022-12-29T11:27:25.482Z,96861.16
2022-12-29T11:28:31.911Z,96850.59
2022-12-29T11:29:43.090Z,96841.88
2022-12-29T11:30:45.081Z,96840.53
2022-12-29T11:31:48.209Z,96846.34
2022-12-29T11:32:53.804Z,96839.75
2022-12-29T11:33:55.854Z,96847.16
2022-12-29T11:35:02.232Z,96838.25
2022-12-29T11:36:07.003Z,96833.72
2022-12-29T11:37:11.963Z,96837.91
2022-12-29T11:38:22.098Z,96841.75
2022-12-29T11:39:29.602Z,96834.63
2022-12-29T11:40:31.799Z,96837.50
2022-12-29T11:41:33.707Z,96842.84
2022-12-29T11:42:35.457Z,96836.25
2022-12-29T11:43:42.185Z,96831.06
2022-12-29T11:44:45.734Z,96837.50
2022-12-29T11:45:49.409Z,96833.13
2022-12-29T11:46:52.668Z,96842.69
2022-12-29T11:47:58.011Z,96839.63
2022-12-29T11:49:01.873Z,96832.66
2022-12-29T11:50:06.008Z,96836.69
2022-12-29T11:51:08.737Z,96835.09
2022-12-29T11:52:10.642Z,96829.09
2022-12-29T11:53:18.696Z,96825.53
2022-12-29T11:54:34.991Z,96830.69
2022-12-29T11:55:36.984Z,96827.16
2022-12-29T11:56:41.621Z,96828.91
2022-12-29T11:57:45.105Z,96829.75
2022-12-29T11:58:48.711Z,96828.41
2022-12-29T11:59:57.426Z,96824.19
2022-12-29T12:01:06.173Z,96825.63
2022-12-29T12:02:19.460Z,96826.25
2022-12-29T12:03:24.179Z,96825.28
2022-12-29T12:04:35.541Z,96825.13
2022-12-29T12:05:37.348Z,96814.38
2022-12-29T12:06:47.496Z,96816.19
2022-12-29T12:08:03.562Z,96822.78
2022-12-29T12:09:12.224Z,96822.28
2022-12-29T12:10:30.491Z,96817.91
2022-12-29T12:11:43.344Z,96809.94
2022-12-29T12:12:57.803Z,96813.34
2022-12-29T12:13:59.517Z,96809.13
2022-12-29T12:15:03.768Z,96812.34
2022-12-29T12:16:09.320Z,96805.19
2022-12-29T12:17:14.045Z,96806.38
2022-12-29T12:18:19.864Z,96812.00
2022-12-29T12:19:32.664Z,96806.09
2022-12-29T12:20:34.409Z,96797.00
2022-12-29T12:21:45.156Z,96803.25
2022-12-29T12:23:03.647Z,96803.34
2022-12-29T12:24:24.262Z,96796.38
2022-12-29T12:25:28.883Z,96800.47
2022-12-29T12:26:40.629Z,96796.00
2022-12-29T12:27:54.522Z,96787.16
2022-12-29T12:29:09.701Z,96785.88
2022-12-29T12:30:24.928Z,96789.00
2022-12-29T12:31:29.563Z,96785.84
2022-12-29T12:32:44.284Z,96779.13
2022-12-29T12:33:49.400Z,96776.06
2022-12-29T12:34:51.641Z,96778.34
2022-12-29T12:35:55.191Z,96772.22
2022-12-29T12:37:20.959Z,96778.34
2022-12-29T12:38:25.790Z,96770.28
2022-12-29T12:39:30.696Z,96773.38
2022-12-29T12:40:32.550Z,96769.31
2022-12-29T12:41:43.230Z,96769.97
2022-12-29T12:42:57.423Z,96766.41
2022-12-29T12:43:59.169Z,96765.69
2022-12-29T12:45:25.711Z,96774.41
2022-12-29T12:46:37.383Z,96762.09